Time;durP1;ratioP1;P1;durP2;ratioP2;P2;SDS_P1;SDS_P2;PMS_P1;PMS_P2;Temp;Humidity;BMP_temperature;BMP_pressure;BME280_temperature;BME280_humidity;BME280_pressure;Samples;Min_cycle;Max_cycle;Signal;HPM_P1;HPM_P2
2024/02/08 00:00:35;;;;;;;27.67;8.60;;;1.50;99.90;;;;;;5045231;28;20653;-73
2024/02/08 00:03:03;;;;;;;23.02;8.73;;;1.50;99.90;;;;;;5032917;28;20034;-73
2024/02/08 00:05:28;;;;;;;24.13;9.18;;;1.50;99.90;;;;;;5034378;28;20026;-73
2024/02/08 00:07:54;;;;;;;24.50;8.88;;;1.50;99.90;;;;;;5033463;28;20028;-73
2024/02/08 00:10:19;;;;;;;21.65;8.48;;;1.50;99.90;;;;;;5034402;28;20037;-73
2024/02/08 00:12:45;;;;;;;22.80;9.27;;;1.50;99.90;;;;;;5016226;28;20044;-74
2024/02/08 00:15:11;;;;;;;25.38;8.63;;;1.50;99.90;;;;;;5034104;28;20052;-73
2024/02/08 00:17:36;;;;;;;16.70;7.50;;;1.50;99.90;;;;;;5033687;28;20125;-73
2024/02/08 00:20:02;;;;;;;15.32;6.47;;;1.50;99.90;;;;;;5033417;28;20022;-73
2024/02/08 00:22:28;;;;;;;16.08;6.88;;;1.50;99.90;;;;;;5046562;28;20127;-73
2024/02/08 00:24:55;;;;;;;22.33;7.43;;;1.40;99.90;;;;;;5048084;28;20100;-73
2024/02/08 00:27:21;;;;;;;21.27;8.20;;;1.40;99.90;;;;;;5033180;28;20025;-73
2024/02/08 00:29:46;;;;;;;21.30;8.38;;;1.40;99.90;;;;;;5033138;28;20025;-73
2024/02/08 00:32:12;;;;;;;28.38;9.20;;;1.40;99.90;;;;;;5033679;28;20029;-73
2024/02/08 00:34:40;;;;;;;29.25;8.50;;;1.40;99.90;;;;;;5033426;28;20477;-73
2024/02/08 00:37:06;;;;;;;20.50;7.97;;;1.50;99.90;;;;;;5032848;28;20022;-73
2024/02/08 00:39:32;;;;;;;18.20;8.25;;;1.50;99.90;;;;;;5033347;28;20034;-73
2024/02/08 00:41:58;;;;;;;26.23;9.18;;;1.50;99.90;;;;;;5032552;28;20029;-73
2024/02/08 00:44:30;;;;;;;18.25;8.02;;;1.50;99.90;;;;;;5033223;28;20370;-73
2024/02/08 00:46:56;;;;;;;24.83;8.95;;;1.60;99.90;;;;;;5032642;28;20136;-73
2024/02/08 00:49:22;;;;;;;22.42;8.60;;;1.60;99.90;;;;;;5032591;28;20509;-73
2024/02/08 00:51:50;;;;;;;24.13;9.13;;;1.50;99.90;;;;;;5032487;28;20021;-73
2024/02/08 00:54:16;;;;;;;23.70;8.35;;;1.50;99.90;;;;;;5032917;28;20029;-73
2024/02/08 00:56:42;;;;;;;22.98;8.20;;;1.50;99.90;;;;;;5031913;28;20514;-73
2024/02/08 00:59:11;;;;;;;23.42;8.70;;;1.50;99.90;;;;;;5032295;28;20151;-73
2024/02/08 01:01:40;;;;;;;22.23;8.48;;;1.50;99.90;;;;;;5032711;28;20393;-73
2024/02/08 01:04:06;;;;;;;20.25;7.50;;;1.50;99.90;;;;;;5032707;28;20393;-73
2024/02/08 01:06:32;;;;;;;25.40;8.73;;;1.50;99.90;;;;;;5032752;28;20020;-73
2024/02/08 01:08:57;;;;;;;17.58;7.00;;;1.50;99.90;;;;;;5032259;28;20029;-73
2024/02/08 01:11:23;;;;;;;20.67;7.32;;;1.50;99.90;;;;;;5032090;28;20057;-73
2024/02/08 01:13:49;;;;;;;27.15;8.57;;;1.50;99.90;;;;;;5032137;28;20025;-74
2024/02/08 01:16:15;;;;;;;23.60;8.77;;;1.50;99.90;;;;;;5032641;28;20026;-73
2024/02/08 01:18:41;;;;;;;25.58;8.00;;;1.50;99.90;;;;;;5032340;28;20046;-73
2024/02/08 01:21:10;;;;;;;28.10;9.63;;;1.50;99.90;;;;;;5031752;28;20029;-74
2024/02/08 01:23:36;;;;;;;17.83;8.93;;;1.50;99.90;;;;;;5031102;28;20030;-73
2024/02/08 01:26:03;;;;;;;25.92;8.93;;;1.50;99.90;;;;;;5031877;28;20049;-73
2024/02/08 01:28:29;;;;;;;29.10;8.32;;;1.50;99.90;;;;;;5032343;28;20470;-73
2024/02/08 01:30:55;;;;;;;24.35;8.50;;;1.50;99.90;;;;;;5031604;28;20051;-73
2024/02/08 01:33:20;;;;;;;32.88;9.48;;;1.50;99.90;;;;;;5037957;28;20032;-73
2024/02/08 01:35:46;;;;;;;30.77;7.90;;;1.50;99.90;;;;;;5032087;28;20025;-73
2024/02/08 01:38:16;;;;;;;26.73;9.32;;;1.50;99.90;;;;;;5031900;28;20084;-73
2024/02/08 01:40:42;;;;;;;20.15;7.50;;;1.50;99.90;;;;;;5031904;28;20021;-73
2024/02/08 01:43:09;;;;;;;20.92;8.30;;;1.50;99.90;;;;;;5050941;28;20029;-73
2024/02/08 01:45:38;;;;;;;22.52;8.15;;;1.50;99.90;;;;;;5040394;28;20283;-73
2024/02/08 01:48:10;;;;;;;25.17;8.23;;;1.60;99.90;;;;;;5031607;28;20045;-73
2024/02/08 01:50:56;;;;;;;18.13;7.72;;;1.60;99.90;;;;;;5032157;28;20025;-74
2024/02/08 01:53:32;;;;;;;27.83;9.50;;;1.60;99.90;;;;;;5023431;28;20113;-74
2024/02/08 01:56:00;;;;;;;20.17;7.90;;;1.60;99.90;;;;;;5031692;28;20079;-74
2024/02/08 01:58:26;;;;;;;28.50;8.80;;;1.70;99.90;;;;;;5031881;28;20041;-73
2024/02/08 02:00:55;;;;;;;15.65;7.65;;;1.60;99.90;;;;;;5031616;28;20547;-73
2024/02/08 02:03:23;;;;;;;14.65;6.55;;;1.70;99.90;;;;;;5042389;28;20068;-73
2024/02/08 02:05:49;;;;;;;21.10;7.50;;;1.60;99.90;;;;;;5031556;28;20104;-73
2024/02/08 02:08:18;;;;;;;15.35;7.30;;;1.70;99.90;;;;;;5031695;28;20593;-73
2024/02/08 02:10:54;;;;;;;20.88;6.00;;;1.70;99.90;;;;;;5031006;28;20029;-74
2024/02/08 02:13:20;;;;;;;18.38;7.75;;;1.70;99.90;;;;;;5031319;28;20030;-73
2024/02/08 02:15:46;;;;;;;24.23;8.55;;;1.70;99.90;;;;;;5031128;28;20036;-73
2024/02/08 02:18:12;;;;;;;22.58;7.05;;;1.80;99.90;;;;;;5029786;28;20063;-73
2024/02/08 02:20:37;;;;;;;23.52;8.40;;;1.80;99.90;;;;;;5031701;28;20105;-73
2024/02/08 02:23:04;;;;;;;19.73;7.97;;;1.90;99.90;;;;;;5038599;28;20036;-73
2024/02/08 02:25:32;;;;;;;22.38;7.13;;;1.90;99.90;;;;;;5032292;28;20036;-73
2024/02/08 02:28:00;;;;;;;20.23;6.30;;;1.90;99.90;;;;;;5031085;28;20489;-73
2024/02/08 02:30:28;;;;;;;17.23;6.47;;;1.80;99.90;;;;;;5037332;28;20065;-73
2024/02/08 02:32:59;;;;;;;20.15;6.60;;;1.80;99.90;;;;;;5031042;28;20029;-73
2024/02/08 02:35:26;;;;;;;21.52;6.93;;;1.80;99.90;;;;;;5031520;28;20025;-73
2024/02/08 02:37:51;;;;;;;22.13;7.55;;;1.80;99.90;;;;;;5030947;28;20065;-73
2024/02/08 02:40:23;;;;;;;19.65;6.47;;;1.70;99.90;;;;;;5031345;28;20126;-73
2024/02/08 02:42:51;;;;;;;16.95;6.60;;;1.80;99.90;;;;;;5030823;28;20036;-73
2024/02/08 02:45:21;;;;;;;15.20;7.63;;;1.70;99.90;;;;;;5030722;28;20029;-73
2024/02/08 02:47:53;;;;;;;19.67;7.50;;;1.70;99.90;;;;;;5031060;28;20072;-73
2024/02/08 02:50:24;;;;;;;17.55;7.30;;;1.70;99.90;;;;;;5032879;28;20022;-73
2024/02/08 02:52:51;;;;;;;21.73;7.40;;;1.70;99.90;;;;;;5045888;28;20171;-73
2024/02/08 02:55:17;;;;;;;16.08;6.57;;;1.70;99.90;;;;;;5042607;28;20148;-73
2024/02/08 02:57:43;;;;;;;20.73;7.50;;;1.70;99.90;;;;;;5030390;28;20041;-73
2024/02/08 03:00:23;;;;;;;23.55;7.32;;;1.70;99.90;;;;;;5031229;28;20021;-73
2024/02/08 03:02:50;;;;;;;21.90;7.05;;;1.70;99.90;;;;;;5042353;28;20041;-73
2024/02/08 03:05:17;;;;;;;19.45;6.65;;;1.70;99.90;;;;;;5030803;28;20029;-73
2024/02/08 03:07:45;;;;;;;17.65;7.55;;;1.70;99.90;;;;;;5030557;28;20105;-73
2024/02/08 03:10:12;;;;;;;13.75;5.82;;;1.70;99.90;;;;;;5031016;28;20067;-73
2024/02/08 03:12:38;;;;;;;21.20;6.97;;;1.70;99.90;;;;;;5030700;28;20452;-73
2024/02/08 03:15:09;;;;;;;27.30;7.20;;;1.70;99.90;;;;;;5030795;28;20033;-73
2024/02/08 03:17:40;;;;;;;19.25;7.25;;;1.70;99.90;;;;;;5031102;28;20046;-73
2024/02/08 03:20:08;;;;;;;24.13;9.23;;;1.70;99.90;;;;;;5034241;28;20107;-73
2024/02/08 03:22:36;;;;;;;16.08;7.03;;;1.70;99.90;;;;;;5034263;28;20069;-73
2024/02/08 03:25:05;;;;;;;26.67;8.15;;;1.70;99.90;;;;;;5034222;28;20053;-73
2024/02/08 03:27:34;;;;;;;24.60;7.63;;;1.70;99.90;;;;;;5034628;28;20105;-73
2024/02/08 03:30:02;;;;;;;28.15;7.82;;;1.70;99.90;;;;;;5034036;28;20052;-73
2024/02/08 03:32:31;;;;;;;21.10;7.10;;;1.70;99.90;;;;;;5026455;28;20075;-73
2024/02/08 03:34:56;;;;;;;19.52;6.93;;;1.70;99.90;;;;;;5034076;28;20025;-73
2024/02/08 03:37:23;;;;;;;30.35;8.27;;;1.60;99.90;;;;;;5034202;28;20029;-73
2024/02/08 03:39:48;;;;;;;26.33;6.43;;;1.70;99.90;;;;;;5033926;28;20367;-73
2024/02/08 03:42:16;;;;;;;18.75;8.27;;;1.70;99.90;;;;;;5036555;28;20044;-73
2024/02/08 03:44:43;;;;;;;21.35;6.88;;;1.70;99.90;;;;;;5040293;28;20482;-74
2024/02/08 03:47:09;;;;;;;18.70;7.00;;;1.70;99.90;;;;;;5034109;28;20027;-73
2024/02/08 03:49:35;;;;;;;21.10;8.65;;;1.70;99.90;;;;;;5034815;28;20041;-74
2024/02/08 03:52:04;;;;;;;18.95;6.95;;;1.70;99.90;;;;;;5033388;28;20151;-74
2024/02/08 03:54:30;;;;;;;17.38;6.63;;;1.70;99.90;;;;;;5034326;28;20030;-74
2024/02/08 03:56:59;;;;;;;20.83;7.68;;;1.70;99.90;;;;;;5033755;28;20049;-73
2024/02/08 03:59:29;;;;;;;20.27;6.65;;;1.70;99.90;;;;;;5034166;28;20037;-73
2024/02/08 04:02:05;;;;;;;12.05;6.10;;;1.80;99.90;;;;;;5025709;28;20094;-74
2024/02/08 04:04:59;;;;;;;20.10;7.00;;;1.80;99.90;;;;;;5034149;28;20064;-73
2024/02/08 04:10:19;;;;;;;30.27;7.68;;;1.80;99.90;;;;;;5035397;28;20037;-73
2024/02/08 04:53:55;;;;;;;20.17;7.38;;;2.00;99.90;;;;;;5032723;28;20093;-74
2024/02/08 04:56:21;;;;;;;19.83;7.53;;;2.00;99.90;;;;;;5032892;28;20104;-73
2024/02/08 04:58:47;;;;;;;15.23;8.43;;;2.00;99.90;;;;;;5031306;28;20477;-73
2024/02/08 05:01:14;;;;;;;16.23;7.70;;;2.10;99.90;;;;;;5032208;28;20076;-73
2024/02/08 05:03:44;;;;;;;21.27;7.75;;;2.00;99.90;;;;;;5032607;28;20489;-74
2024/02/08 05:06:14;;;;;;;25.20;8.30;;;2.00;99.90;;;;;;5032795;28;20017;-73
2024/02/08 05:08:44;;;;;;;23.95;8.52;;;2.00;99.90;;;;;;5032985;28;20381;-74
2024/02/08 05:11:10;;;;;;;17.55;8.10;;;2.00;99.90;;;;;;5050675;28;20380;-74
2024/02/08 05:13:39;;;;;;;21.48;7.90;;;2.00;99.90;;;;;;5032534;28;20049;-73
2024/02/08 05:16:06;;;;;;;23.92;8.50;;;2.00;99.90;;;;;;5032212;28;20022;-73
2024/02/08 05:18:32;;;;;;;28.02;9.70;;;2.00;99.90;;;;;;5032633;28;20120;-73
2024/02/08 05:20:57;;;;;;;30.88;9.43;;;2.00;99.90;;;;;;5030338;28;20462;-73
2024/02/08 05:23:25;;;;;;;27.95;9.85;;;1.90;99.90;;;;;;5032523;28;20117;-73
2024/02/08 05:25:52;;;;;;;32.08;9.10;;;1.90;99.90;;;;;;5031865;28;20112;-74
2024/02/08 05:28:18;;;;;;;18.88;8.80;;;1.80;99.90;;;;;;5031950;28;20473;-73
2024/02/08 05:30:45;;;;;;;28.75;10.68;;;1.80;99.90;;;;;;5031687;28;20112;-73
2024/02/08 05:33:11;;;;;;;29.92;10.02;;;1.70;99.90;;;;;;5032417;28;20029;-73
2024/02/08 05:35:39;;;;;;;23.52;9.95;;;1.80;99.90;;;;;;5032638;28;20049;-73
2024/02/08 05:38:05;;;;;;;29.02;9.32;;;1.70;99.90;;;;;;5031361;28;20390;-73
2024/02/08 05:40:31;;;;;;;29.70;9.15;;;1.70;99.90;;;;;;5034634;28;20163;-73
2024/02/08 05:42:58;;;;;;;22.85;9.90;;;1.70;99.90;;;;;;5033137;28;20112;-73
2024/02/08 05:45:30;;;;;;;34.55;10.45;;;1.70;99.90;;;;;;5032396;28;20032;-73
2024/02/08 05:48:00;;;;;;;20.60;9.15;;;1.70;99.90;;;;;;5031719;28;20052;-73
2024/02/08 05:50:26;;;;;;;29.67;10.15;;;1.70;99.90;;;;;;5032553;28;20037;-73
2024/02/08 05:52:51;;;;;;;23.15;9.55;;;1.70;99.90;;;;;;5047063;28;20025;-73
2024/02/08 05:55:19;;;;;;;22.25;9.15;;;1.70;99.90;;;;;;5051777;28;20020;-73
2024/02/08 05:57:46;;;;;;;36.95;11.13;;;1.80;99.90;;;;;;5041798;28;20401;-74
2024/02/08 06:00:31;;;;;;;30.33;11.02;;;1.80;99.90;;;;;;5040040;28;20071;-74
2024/02/08 06:03:01;;;;;;;32.22;11.45;;;1.80;99.90;;;;;;5048265;28;20115;-73
2024/02/08 06:05:28;;;;;;;24.98;10.98;;;1.90;99.90;;;;;;5052070;28;20461;-73
2024/02/08 06:07:56;;;;;;;38.00;10.93;;;1.90;99.90;;;;;;5039366;28;20099;-73
2024/02/08 06:10:41;;;;;;;25.75;10.73;;;1.90;99.90;;;;;;5037098;28;20025;-73
2024/02/08 06:13:12;;;;;;;34.03;11.73;;;1.90;99.90;;;;;;5031363;28;20029;-73
2024/02/08 06:15:50;;;;;;;23.92;10.88;;;1.90;99.90;;;;;;5031728;28;20457;-73
2024/02/08 06:18:20;;;;;;;26.15;10.75;;;2.00;99.90;;;;;;5031533;28;20045;-73
2024/02/08 06:20:51;;;;;;;25.05;10.93;;;2.00;99.90;;;;;;5033265;28;20033;-74
2024/02/08 06:23:27;;;;;;;27.57;11.90;;;2.00;99.90;;;;;;5032408;28;20477;-74
2024/02/08 06:28:53;;;;;;;32.53;10.10;;;2.00;99.90;;;;;;5031541;28;20033;-74
2024/02/08 06:31:19;;;;;;;25.27;10.93;;;2.10;99.90;;;;;;5025188;28;20474;-73
2024/02/08 06:36:33;;;;;;;25.23;10.15;;;2.10;99.90;;;;;;5031555;28;20029;-73
2024/02/08 06:39:20;;;;;;;21.65;11.15;;;2.10;99.90;;;;;;5030930;28;20038;-73
2024/02/08 06:41:52;;;;;;;27.33;10.20;;;2.10;99.90;;;;;;5024523;28;20033;-74
2024/02/08 06:44:42;;;;;;;26.27;11.70;;;2.10;99.90;;;;;;5031003;28;20029;-74
2024/02/08 07:41:55;;;;;;;32.92;12.00;;;2.80;99.90;;;;;;5033470;28;20087;-73
2024/02/08 07:44:22;;;;;;;35.22;12.85;;;2.90;99.90;;;;;;5033002;28;20029;-74
2024/02/08 07:46:54;;;;;;;37.05;12.80;;;2.90;99.90;;;;;;5033942;28;20053;-74
2024/02/08 07:49:29;;;;;;;33.28;12.18;;;3.00;99.90;;;;;;5039798;28;20087;-73
2024/02/08 07:51:58;;;;;;;33.47;12.85;;;3.00;99.90;;;;;;5033710;28;20481;-74
2024/02/08 07:54:24;;;;;;;37.78;12.10;;;3.00;99.90;;;;;;5033248;28;20030;-73
2024/02/08 07:56:53;;;;;;;39.38;11.98;;;3.10;99.90;;;;;;5031250;28;20580;-73
2024/02/08 07:59:26;;;;;;;36.15;10.75;;;3.10;99.90;;;;;;5035888;28;20546;-74
2024/02/08 08:01:53;;;;;;;;;;;3.20;99.90;;;;;;5050933;28;20035;-74
2024/02/08 08:07:07;;;;;;;24.63;8.55;;;3.20;99.90;;;;;;5031960;28;20041;-74
2024/02/08 08:09:36;;;;;;;29.98;9.32;;;3.30;99.90;;;;;;5032849;28;20450;-73
2024/02/08 08:12:04;;;;;;;33.58;9.38;;;3.30;99.90;;;;;;5032386;28;20041;-73
2024/02/08 08:17:08;;;;;;;39.85;8.88;;;3.40;99.90;;;;;;5032234;28;20040;-73
2024/02/08 08:19:46;;;;;;;24.98;7.63;;;3.50;99.90;;;;;;5032768;28;20385;-74
2024/02/08 08:22:18;;;;;;;29.17;7.82;;;3.50;99.90;;;;;;5025292;28;20386;-74
2024/02/08 08:27:52;;;;;;;27.85;8.77;;;3.60;99.90;;;;;;5041857;28;20486;-74
2024/02/08 08:30:27;;;;;;;22.27;7.35;;;3.70;99.90;;;;;;5032415;28;20022;-73
2024/02/08 08:35:45;;;;;;;26.05;8.80;;;3.70;99.90;;;;;;5040086;28;20484;-74
2024/02/08 08:40:47;;;;;;;39.70;8.65;;;3.80;99.90;;;;;;5031505;28;20025;-73
2024/02/08 08:43:22;;;;;;;24.90;7.10;;;3.80;99.90;;;;;;5032361;28;20033;-74
2024/02/08 08:45:53;;;;;;;21.92;7.32;;;3.90;99.90;;;;;;5038205;28;20494;-74
2024/02/08 08:48:29;;;;;;;36.90;7.50;;;3.90;99.90;;;;;;5012128;28;1088048;-73
2024/02/08 08:50:58;;;;;;;21.85;7.25;;;3.90;99.90;;;;;;5032422;28;20488;-74
2024/02/08 08:53:28;;;;;;;24.73;8.02;;;3.90;99.90;;;;;;5032954;28;20363;-74
2024/02/08 08:55:56;;;;;;;28.77;8.23;;;3.90;99.90;;;;;;5036085;28;20028;-74
2024/02/08 08:58:27;;;;;;;27.70;6.95;;;4.00;99.90;;;;;;5050181;28;20059;-73
2024/02/08 09:01:11;;;;;;;23.20;6.65;;;4.00;99.90;;;;;;5032452;28;20041;-73
2024/02/08 09:03:38;;;;;;;19.90;7.22;;;4.00;99.90;;;;;;5032207;28;20454;-74
2024/02/08 09:06:04;;;;;;;17.10;7.63;;;4.10;99.90;;;;;;5033878;28;20017;-73
2024/02/08 09:08:43;;;;;;;19.52;6.68;;;4.10;99.90;;;;;;5037166;28;20040;-73
2024/02/08 09:11:13;;;;;;;25.67;6.90;;;4.10;99.90;;;;;;5032777;28;20037;-74
2024/02/08 09:13:42;;;;;;;23.20;7.10;;;4.10;99.90;;;;;;5031756;28;20481;-73
2024/02/08 09:21:32;;;;;;;28.33;8.00;;;4.20;99.90;;;;;;5032186;28;20021;-73
2024/02/08 09:24:06;;;;;;;23.83;7.40;;;4.20;99.90;;;;;;5031946;28;20033;-73
2024/02/08 09:26:48;;;;;;;22.55;6.72;;;4.20;99.90;;;;;;5032014;28;20151;-73
2024/02/08 09:29:23;;;;;;;26.52;8.02;;;4.20;99.90;;;;;;5027797;28;20029;-74
2024/02/08 09:31:58;;;;;;;29.30;8.20;;;4.30;99.90;;;;;;5036217;28;20026;-74
2024/02/08 09:34:37;;;;;;;28.63;7.20;;;4.20;99.90;;;;;;5030742;28;20375;-74
2024/02/08 09:37:07;;;;;;;22.65;7.35;;;4.20;99.90;;;;;;5031506;28;20036;-74
2024/02/08 09:42:26;;;;;;;25.52;7.70;;;4.20;99.90;;;;;;5031355;28;20025;-74
2024/02/08 09:47:54;;;;;;;23.30;7.45;;;4.30;99.90;;;;;;5031679;28;20059;-74
2024/02/08 09:50:35;;;;;;;21.23;7.57;;;4.30;99.90;;;;;;5031954;28;20038;-74
2024/02/08 09:53:17;;;;;;;24.20;6.72;;;4.30;99.90;;;;;;5031330;28;21076;-74
2024/02/08 09:55:55;;;;;;;27.23;7.93;;;4.30;99.90;;;;;;5031351;28;20478;-74
2024/02/08 09:58:33;;;;;;;19.60;7.20;;;4.40;99.90;;;;;;5031504;28;20116;-73
2024/02/08 10:01:21;;;;;;;26.33;8.55;;;4.40;99.90;;;;;;5031398;28;20030;-74
2024/02/08 10:04:05;;;;;;;27.13;8.35;;;4.40;99.90;;;;;;5031188;28;20112;-74
2024/02/08 10:12:11;;;;;;;21.90;8.55;;;4.50;99.90;;;;;;5034574;28;20079;-74
2024/02/08 10:14:41;;;;;;;24.13;7.95;;;4.60;99.90;;;;;;5031863;28;20025;-74
2024/02/08 10:17:40;;;;;;;21.15;7.22;;;4.60;99.90;;;;;;5031155;28;20044;-73
2024/02/08 10:22:58;;;;;;;21.63;7.47;;;4.70;99.90;;;;;;5031267;28;20104;-74
2024/02/08 10:28:22;;;;;;;20.85;7.38;;;4.70;99.90;;;;;;5031225;28;20040;-73
2024/02/08 10:30:59;;;;;;;24.38;7.22;;;4.70;99.90;;;;;;5031037;28;20025;-74
2024/02/08 10:33:37;;;;;;;23.88;7.57;;;4.80;99.90;;;;;;5031593;28;20025;-74
2024/02/08 10:36:18;;;;;;;19.52;6.85;;;4.80;99.90;;;;;;5030830;28;20048;-74
2024/02/08 10:38:56;;;;;;;17.17;6.57;;;4.80;99.90;;;;;;5042545;28;20095;-74
2024/02/08 10:42:13;;;;;;;19.67;7.00;;;4.90;99.90;;;;;;5030973;28;20105;-74
2024/02/08 10:44:18;;;;;;;;;;;4.90;99.90;;;;;;5033229;28;20038;-74
2024/02/08 10:46:46;;;;;;;19.80;6.70;;;4.80;99.90;;;;;;5038069;28;19913;-74
2024/02/08 10:49:12;;;;;;;20.08;5.95;;;4.80;99.90;;;;;;5030866;28;20049;-74
2024/02/08 10:51:44;;;;;;;15.52;5.80;;;4.80;99.90;;;;;;5031051;28;20521;-73
2024/02/08 10:54:14;;;;;;;19.30;6.22;;;4.80;99.90;;;;;;5031268;28;20033;-74
2024/02/08 10:56:47;;;;;;;21.65;6.63;;;4.80;99.90;;;;;;5031139;28;20051;-74
2024/02/08 10:59:14;;;;;;;16.15;5.90;;;4.80;99.90;;;;;;5030777;28;20504;-74
2024/02/08 11:04:28;;;;;;;18.23;6.13;;;4.80;99.90;;;;;;5044134;28;20685;-74
2024/02/08 11:07:45;;;;;;;21.15;6.20;;;4.90;99.90;;;;;;5049887;28;20029;-74
2024/02/08 11:09:45;;;;;;;17.92;5.68;;;4.80;99.90;;;;;;5032724;28;20041;-74
2024/02/08 11:12:29;;;;;;;22.30;6.50;;;4.80;99.90;;;;;;5029042;28;20028;-74
2024/02/08 11:15:13;;;;;;;24.40;6.18;;;4.90;99.90;;;;;;5022609;28;20461;-73
2024/02/08 11:17:49;;;;;;;16.75;5.50;;;4.90;99.90;;;;;;5030657;28;20487;-74
2024/02/08 11:20:23;;;;;;;13.50;5.90;;;5.00;99.90;;;;;;5031016;28;20033;-74
2024/02/08 11:22:57;;;;;;;18.55;6.95;;;5.00;99.90;;;;;;5010737;28;20022;-74
2024/02/08 11:25:33;;;;;;;22.77;7.47;;;5.00;99.90;;;;;;5023250;28;20030;-74
2024/02/08 11:28:10;;;;;;;23.10;6.60;;;5.10;99.90;;;;;;5030124;28;20018;-74
2024/02/08 11:30:36;;;;;;;15.60;5.90;;;5.10;99.90;;;;;;5030857;28;20025;-74
2024/02/08 11:33:03;;;;;;;21.85;5.88;;;5.00;99.90;;;;;;5031062;28;20369;-74
2024/02/08 11:35:35;;;;;;;21.30;7.05;;;5.10;99.90;;;;;;5030504;28;20025;-74
2024/02/08 11:38:25;;;;;;;28.20;7.50;;;5.10;99.90;;;;;;5030316;28;20116;-74
2024/02/08 11:40:51;;;;;;;21.38;6.82;;;5.10;99.90;;;;;;5030291;28;20276;-74
2024/02/08 11:43:19;;;;;;;20.13;6.03;;;5.20;99.90;;;;;;5034443;28;20072;-74
2024/02/08 11:45:52;;;;;;;24.10;7.03;;;5.20;99.90;;;;;;5033738;28;20037;-74
2024/02/08 11:48:27;;;;;;;24.10;7.38;;;5.20;99.90;;;;;;5033602;28;20366;-74
2024/02/08 11:51:00;;;;;;;17.65;5.90;;;5.20;99.90;;;;;;5033634;28;20037;-74
2024/02/08 11:53:32;;;;;;;21.10;6.78;;;5.30;99.90;;;;;;5035102;28;20029;-74
2024/02/08 11:56:20;;;;;;;21.75;7.47;;;5.30;99.90;;;;;;5053449;28;20025;-74
2024/02/08 11:58:49;;;;;;;19.30;6.70;;;5.20;99.90;;;;;;5037332;28;20041;-74
2024/02/08 12:01:17;;;;;;;21.45;6.15;;;5.10;99.90;;;;;;5032541;28;20024;-74
2024/02/08 12:03:44;;;;;;;18.98;6.20;;;5.10;99.90;;;;;;5033629;28;20040;-74
2024/02/08 12:06:18;;;;;;;14.77;5.93;;;5.00;99.90;;;;;;5034010;28;20021;-74
2024/02/08 12:09:03;;;;;;;18.83;6.38;;;5.00;99.90;;;;;;5033198;28;20499;-74
2024/02/08 12:11:33;;;;;;;15.50;5.90;;;4.90;99.90;;;;;;5033937;28;20032;-74
2024/02/08 12:14:10;;;;;;;23.35;5.70;;;5.00;99.90;;;;;;5039579;28;20031;-74
2024/02/08 12:16:57;;;;;;;20.70;5.75;;;4.90;99.90;;;;;;5029624;28;20033;-74
2024/02/08 12:19:24;;;;;;;18.98;6.13;;;4.90;99.90;;;;;;5033447;28;20108;-74
2024/02/08 12:21:57;;;;;;;16.83;5.32;;;4.90;99.90;;;;;;5033110;28;20079;-74
2024/02/08 12:24:26;;;;;;;15.55;5.68;;;4.90;99.90;;;;;;5044622;28;20075;-74
2024/02/08 12:26:54;;;;;;;21.23;6.45;;;4.90;99.90;;;;;;5035915;28;20060;-74
2024/02/08 12:29:24;;;;;;;18.45;6.07;;;4.90;99.90;;;;;;5033446;28;20097;-74
2024/02/08 12:31:54;;;;;;;17.90;6.63;;;4.80;99.90;;;;;;5036864;28;20024;-74
2024/02/08 12:34:31;;;;;;;19.58;6.70;;;4.80;99.90;;;;;;5036374;28;20108;-73
2024/02/08 12:37:05;;;;;;;17.73;6.00;;;4.80;99.90;;;;;;5032861;28;20033;-74
2024/02/08 12:39:38;;;;;;;19.10;6.70;;;4.70;99.90;;;;;;5033441;28;20478;-74
2024/02/08 12:42:07;;;;;;;18.27;5.55;;;4.60;99.90;;;;;;5034500;28;20018;-74
2024/02/08 12:44:34;;;;;;;15.95;5.75;;;4.60;99.90;;;;;;5039044;28;20052;-74
2024/02/08 12:47:01;;;;;;;18.10;6.47;;;4.60;99.90;;;;;;5038352;28;20020;-74
2024/02/08 12:49:27;;;;;;;23.35;7.20;;;4.60;99.90;;;;;;5032924;28;20061;-74
2024/02/08 12:51:59;;;;;;;17.77;7.15;;;4.60;99.90;;;;;;5032767;28;20029;-73
2024/02/08 12:54:25;;;;;;;23.60;6.97;;;4.60;99.90;;;;;;5031548;28;20474;-74
2024/02/08 12:57:07;;;;;;;17.58;6.32;;;4.60;99.90;;;;;;5032606;28;20021;-74
2024/02/08 12:59:34;;;;;;;24.10;8.23;;;4.60;99.90;;;;;;5033406;28;20033;-74
2024/02/08 13:02:08;;;;;;;24.30;6.95;;;4.60;99.90;;;;;;5040958;28;20119;-74
2024/02/08 13:04:43;;;;;;;20.10;7.22;;;4.50;99.90;;;;;;5050907;28;20036;-73
2024/02/08 13:07:19;;;;;;;23.05;7.35;;;4.50;99.90;;;;;;5033274;28;20385;-74
2024/02/08 13:09:46;;;;;;;22.88;7.10;;;4.50;99.90;;;;;;5032338;28;20031;-74
2024/02/08 13:12:18;;;;;;;19.27;7.13;;;4.50;99.90;;;;;;5033049;28;20029;-74
2024/02/08 13:14:49;;;;;;;20.27;7.25;;;4.40;99.90;;;;;;5012295;28;20025;-74
2024/02/08 13:17:19;;;;;;;18.13;7.82;;;4.40;99.90;;;;;;5026526;28;20104;-74
2024/02/08 13:19:49;;;;;;;21.02;7.90;;;4.40;99.90;;;;;;5032358;28;20026;-74
2024/02/08 13:22:15;;;;;;;24.27;7.38;;;4.30;99.90;;;;;;5036067;28;20035;-74
2024/02/08 13:24:43;;;;;;;21.20;8.25;;;4.30;99.90;;;;;;5036223;28;20426;-74
2024/02/08 13:27:09;;;;;;;22.50;7.82;;;4.30;99.90;;;;;;5032674;28;20086;-74
2024/02/08 13:29:34;;;;;;;24.73;8.30;;;4.30;99.90;;;;;;5032639;28;20033;-74
2024/02/08 13:32:01;;;;;;;32.47;8.50;;;4.30;99.90;;;;;;5031974;28;20033;-74
2024/02/08 13:34:27;;;;;;;18.75;7.70;;;4.30;99.90;;;;;;5032118;28;20025;-74
2024/02/08 13:36:52;;;;;;;20.63;7.78;;;4.30;99.90;;;;;;5031908;28;20025;-74
2024/02/08 13:39:25;;;;;;;20.58;7.68;;;4.20;99.90;;;;;;5033123;28;20033;-74
2024/02/08 13:41:51;;;;;;;22.73;7.10;;;4.20;99.90;;;;;;5031850;28;20025;-74
2024/02/08 13:44:20;;;;;;;21.55;7.82;;;4.20;99.90;;;;;;5032227;28;20025;-74
2024/02/08 13:46:48;;;;;;;21.17;8.10;;;4.20;99.90;;;;;;5030573;28;20501;-74
2024/02/08 13:49:15;;;;;;;21.58;6.50;;;4.20;99.90;;;;;;5031950;28;20050;-74
2024/02/08 13:51:44;;;;;;;18.50;7.35;;;4.30;99.90;;;;;;5032092;28;20032;-74
2024/02/08 13:54:12;;;;;;;20.10;6.88;;;4.30;99.90;;;;;;5031657;28;20029;-74
2024/02/08 13:56:40;;;;;;;18.20;7.00;;;4.20;99.90;;;;;;5032051;28;20036;-74
2024/02/08 13:59:06;;;;;;;19.65;7.82;;;4.10;99.90;;;;;;5031431;28;20037;-74
2024/02/08 14:01:32;;;;;;;24.25;7.13;;;4.10;99.90;;;;;;5045874;28;20025;-74
2024/02/08 14:03:58;;;;;;;24.20;9.23;;;4.10;99.90;;;;;;5031398;28;20029;-74
2024/02/08 14:06:29;;;;;;;23.48;8.15;;;4.10;99.90;;;;;;5042658;28;20021;-74
2024/02/08 14:09:18;;;;;;;23.67;8.93;;;4.10;99.90;;;;;;5031228;28;20025;-74
2024/02/08 14:11:43;;;;;;;23.40;9.38;;;4.10;99.90;;;;;;5031192;28;20498;-74
2024/02/08 14:14:10;;;;;;;21.17;8.43;;;4.20;99.90;;;;;;5031923;28;20485;-74
2024/02/08 14:16:37;;;;;;;20.63;9.48;;;4.20;99.90;;;;;;5031605;28;20577;-74
2024/02/08 14:19:02;;;;;;;19.98;9.13;;;4.10;99.90;;;;;;5031077;28;20481;-74
2024/02/08 14:21:28;;;;;;;24.80;10.68;;;4.10;99.90;;;;;;5031294;28;20049;-74
2024/02/08 14:23:59;;;;;;;21.60;9.75;;;4.10;99.90;;;;;;5031201;28;20100;-74
2024/02/08 14:26:37;;;;;;;25.90;10.73;;;4.10;99.90;;;;;;5031482;28;20022;-74
2024/02/08 14:29:05;;;;;;;19.42;9.88;;;4.10;99.90;;;;;;5031481;28;20042;-74
2024/02/08 14:31:35;;;;;;;22.65;10.68;;;4.10;99.90;;;;;;5031691;28;20428;-74
2024/02/08 14:34:02;;;;;;;20.90;10.85;;;4.10;99.90;;;;;;5030526;28;20064;-74
2024/02/08 14:36:28;;;;;;;23.50;10.85;;;4.10;99.90;;;;;;5031150;28;20022;-74
2024/02/08 14:38:54;;;;;;;23.05;9.93;;;4.10;99.90;;;;;;5030949;28;20029;-74
2024/02/08 14:41:25;;;;;;;23.80;10.10;;;4.00;99.90;;;;;;5031641;28;20433;-74
2024/02/08 14:43:54;;;;;;;21.47;9.87;;;4.00;99.90;;;;;;5031507;28;20029;-74
2024/02/08 14:46:25;;;;;;;28.77;10.43;;;4.00;99.90;;;;;;5031133;28;20101;-74
2024/02/08 14:48:52;;;;;;;22.60;9.93;;;4.00;99.90;;;;;;5030838;28;20053;-74
2024/02/08 14:53:53;;;;;;;24.17;10.38;;;3.90;99.90;;;;;;5044308;28;20537;-74
2024/02/08 14:56:19;;;;;;;20.67;10.18;;;3.90;99.90;;;;;;5018971;28;20492;-74
2024/02/08 14:58:56;;;;;;;20.90;10.07;;;3.90;99.90;;;;;;5030752;28;20126;-74
2024/02/08 15:01:38;;;;;;;25.48;9.65;;;3.90;99.90;;;;;;5031116;28;20014;-74
2024/02/08 15:04:21;;;;;;;21.27;9.95;;;3.90;99.90;;;;;;5040832;28;20036;-74
2024/02/08 15:12:10;;;;;;;21.63;9.82;;;3.80;99.90;;;;;;5030439;28;20103;-74
2024/02/08 15:14:36;;;;;;;17.48;8.90;;;3.80;99.90;;;;;;5031105;28;20408;-74
2024/02/08 15:17:10;;;;;;;18.27;8.98;;;3.80;99.90;;;;;;5032810;28;20101;-73
2024/02/08 15:19:52;;;;;;;18.05;9.35;;;3.90;99.90;;;;;;5034855;28;20084;-73
2024/02/08 15:25:04;;;;;;;14.10;7.65;;;3.80;99.90;;;;;;5046044;28;20064;-73
2024/02/08 15:30:19;;;;;;;16.02;7.80;;;3.80;99.90;;;;;;5034983;28;20043;-73
2024/02/08 15:35:36;;;;;;;16.30;8.27;;;3.80;99.90;;;;;;5034850;28;20421;-73
2024/02/08 15:38:35;;;;;;;14.13;7.88;;;3.70;99.90;;;;;;5034318;28;20040;-74
2024/02/08 15:41:17;;;;;;;16.15;9.25;;;3.70;99.90;;;;;;5033352;28;20504;-73